TPOK1: Kansas River, State-Line, KS

                                SHEF ID:       TPOK1     MARAIS DES CYGNES R NR KS-MO ST
STATION TYPE:

STAGE STAGE(2) RIV-FLOW BAT-LOAD
ft ft cfs volt
Ccp-Rev Ccp-Rev Ccp-Rev Ccp-Rev
(America/Chicago)
07/07 00:00 9.62 9.66 3185 12.50
07/07 01:00 9.60 9.66 3171 12.47
07/07 02:00 9.60 9.60 3171 12.48
07/07 03:00 9.55 9.51 3136 12.44
07/07 04:00 9.50 9.47 3101 12.41
07/07 05:00 9.42 9.43 3046 12.38
07/07 06:00 9.34 9.34 2991 12.37
07/07 07:00 9.25 9.28 2930 12.37
07/07 08:00 9.16 9.15 2869 12.41
07/07 09:00 9.08 9.08 2815 12.79
07/07 10:00 8.99 8.96 2755 13.26
07/07 11:00 8.89 8.89 2689 12.97
07/07 12:00 8.79 8.77 2624 13.32
07/07 13:00 8.69 8.65 2559 13.27
07/07 14:00 8.58 8.56 2488 13.26
07/07 15:00 8.46 8.49 2412 13.01
07/07 16:00 8.39 8.37 2367 12.96
07/07 17:00 8.27 8.31 2292 12.90
07/07 18:00 8.21 8.18 2255 12.72
07/07 19:00 8.13 8.11 2206 12.67
07/07 20:00 8.06 8.04 2163 12.61
07/07 21:00 7.99 7.93 2121 12.57
07/07 22:00 7.92 7.90 2079 12.53
07/07 23:00 7.86 7.83 2043 12.52
Data processed at Wed 08Jul2026 15:28 GMT

NOTICE: If you are parsing this page

Please convert to using our Data API. Starting early 2026 we will be migrating to: https://water.usace.army.mil with modern pages rendered in JavaScript. When this migration completes you will no longer be able to scrape this page! CWMSDataAPI (CDA)

Timeseries IDs (TSIDs)

TSIDs used from left to right in the data table
MKSL.Stage.Inst.1Hour.0.Ccp-Rev
MKSL.Stage-Alt.Inst.1Hour.0.Ccp-Rev
MKSL.Flow.Inst.1Hour.0.Ccp-Rev
MKSL.Volt-Battery Load.Inst.1Hour.0.Ccp-Rev

                            

All information presented herein is the property of the government of the United States of America and may be revised or deleted at any time without prior notice. Dissemination of this information without the expressed written consent of the Public Affairs Office, Tulsa District U.S. Army Corps of Engineers is strictly prohibited. These data are gathered electronically and, as presented, have NOT undergone any form of quality control. These data are NOT guaranteed to be valid or correct.